Time;durP1;ratioP1;P1;durP2;ratioP2;P2;SDS_P1;SDS_P2;PMS_P1;PMS_P2;Temp;Humidity;BMP_temperature;BMP_pressure;BME280_temperature;BME280_humidity;BME280_pressure;Samples;Min_cycle;Max_cycle;Signal;HPM_P1;HPM_P2
2023/12/17 00:01:10;;;;;;;8.43;6.25;;;1.50;99.90;;;;;;5031172;28;20302;-86
2023/12/17 00:03:37;;;;;;;8.65;6.32;;;1.60;99.90;;;;;;5036826;28;20288;-85
2023/12/17 00:06:04;;;;;;;6.55;5.70;;;1.60;99.90;;;;;;5043018;28;20788;-86
2023/12/17 00:08:31;;;;;;;7.50;5.78;;;1.60;99.90;;;;;;5043022;28;20275;-85
2023/12/17 00:10:59;;;;;;;10.77;6.45;;;1.60;99.90;;;;;;5044695;28;20230;-85
2023/12/17 00:13:25;;;;;;;11.38;6.45;;;1.50;99.90;;;;;;5042933;28;20303;-87
2023/12/17 00:15:52;;;;;;;5.15;4.65;;;1.50;99.90;;;;;;5046644;28;20196;-86
2023/12/17 00:18:21;;;;;;;9.85;5.65;;;1.50;99.90;;;;;;5046533;28;20230;-86
2023/12/17 00:20:47;;;;;;;12.02;6.45;;;1.40;99.90;;;;;;5043461;28;20212;-87
2023/12/17 00:23:14;;;;;;;5.60;5.10;;;1.40;99.90;;;;;;5047258;28;20206;-87
2023/12/17 00:25:41;;;;;;;6.55;5.90;;;1.40;99.90;;;;;;5046858;28;20673;-86
2023/12/17 00:28:08;;;;;;;6.90;5.88;;;1.30;99.90;;;;;;5046309;28;20239;-87
2023/12/17 00:30:35;;;;;;;6.15;5.57;;;1.30;99.90;;;;;;5046477;28;20238;-87
2023/12/17 00:33:02;;;;;;;6.65;4.63;;;1.30;99.90;;;;;;5046794;28;20290;-86
2023/12/17 00:35:30;;;;;;;5.18;4.63;;;1.40;99.90;;;;;;5046335;28;20267;-87
2023/12/17 00:37:57;;;;;;;7.68;5.38;;;1.30;99.90;;;;;;5050686;28;20755;-87
2023/12/17 00:40:23;;;;;;;6.30;5.10;;;1.30;99.90;;;;;;5042248;28;20725;-88
2023/12/17 00:42:50;;;;;;;7.57;4.85;;;1.30;99.90;;;;;;5046536;28;20257;-86
2023/12/17 00:45:17;;;;;;;5.95;3.63;;;1.40;99.90;;;;;;5045798;28;20411;-85
2023/12/17 00:47:44;;;;;;;13.68;4.97;;;1.30;99.90;;;;;;5044296;28;20220;-86
2023/12/17 00:50:11;;;;;;;6.65;4.60;;;1.30;99.90;;;;;;5034767;28;20279;-86
2023/12/17 00:52:39;;;;;;;4.38;3.97;;;1.40;99.90;;;;;;5046622;28;20231;-85
2023/12/17 00:55:07;;;;;;;8.57;5.20;;;1.30;99.90;;;;;;5052368;28;20320;-86
2023/12/17 00:57:34;;;;;;;4.60;4.20;;;1.30;99.90;;;;;;5047278;28;20703;-85
2023/12/17 01:00:00;;;;;;;5.22;4.10;;;1.30;99.90;;;;;;5045616;28;20757;-86
2023/12/17 01:02:27;;;;;;;7.63;4.28;;;1.30;99.90;;;;;;5039091;28;20229;-86
2023/12/17 01:04:54;;;;;;;5.40;4.90;;;1.30;99.90;;;;;;5044685;28;20228;-85
2023/12/17 01:07:21;;;;;;;8.25;5.78;;;1.20;99.90;;;;;;5044187;28;20294;-85
2023/12/17 01:09:49;;;;;;;4.97;4.47;;;1.30;99.90;;;;;;5045025;28;20266;-85
2023/12/17 01:12:16;;;;;;;11.32;5.85;;;1.30;99.90;;;;;;5040342;28;20203;-86
2023/12/17 01:14:43;;;;;;;6.30;5.63;;;1.40;99.90;;;;;;5041223;28;20228;-85
2023/12/17 01:17:10;;;;;;;8.35;6.75;;;1.40;99.90;;;;;;5046419;28;20204;-86
2023/12/17 01:19:37;;;;;;;7.30;5.63;;;1.40;99.90;;;;;;5045920;28;20670;-86
2023/12/17 01:22:05;;;;;;;7.35;5.68;;;1.40;99.90;;;;;;5044365;28;20215;-85
2023/12/17 01:24:32;;;;;;;6.90;5.22;;;1.30;99.90;;;;;;5045832;28;20206;-87
2023/12/17 01:27:01;;;;;;;5.45;4.95;;;1.50;99.90;;;;;;5045747;28;20650;-85
2023/12/17 01:29:27;;;;;;;8.45;4.90;;;1.50;99.90;;;;;;5043297;28;20283;-86
2023/12/17 01:31:57;;;;;;;10.00;6.45;;;1.40;99.90;;;;;;5042323;28;20233;-86
2023/12/17 01:34:24;;;;;;;5.35;4.85;;;1.30;99.90;;;;;;5045547;28;20271;-86
2023/12/17 01:36:51;;;;;;;8.40;5.10;;;1.30;99.90;;;;;;5045662;28;20232;-86
2023/12/17 01:39:20;;;;;;;7.07;4.22;;;1.40;99.90;;;;;;5046749;28;20588;-86
2023/12/17 01:41:47;;;;;;;5.30;4.45;;;1.20;99.90;;;;;;5043733;28;20535;-87
2023/12/17 01:44:15;;;;;;;7.18;5.30;;;1.30;99.90;;;;;;5045843;28;20208;-86
2023/12/17 01:46:43;;;;;;;5.65;4.55;;;1.30;99.90;;;;;;5045679;28;20209;-86
2023/12/17 01:49:10;;;;;;;5.25;4.75;;;1.40;99.90;;;;;;5043866;28;20243;-87
2023/12/17 01:51:37;;;;;;;5.53;5.07;;;1.40;99.90;;;;;;5045574;28;20277;-86
2023/12/17 01:54:04;;;;;;;6.00;5.40;;;1.40;99.90;;;;;;5050979;28;20320;-86
2023/12/17 01:56:31;;;;;;;8.57;4.75;;;1.40;99.90;;;;;;5045680;28;20198;-86
2023/12/17 01:58:59;;;;;;;6.50;3.83;;;1.40;99.90;;;;;;5045796;28;20203;-86
2023/12/17 02:01:28;;;;;;;11.00;6.35;;;1.60;99.90;;;;;;5044722;28;20222;-85
2023/12/17 02:03:56;;;;;;;5.00;4.53;;;1.60;99.90;;;;;;5045180;28;20231;-86
2023/12/17 02:06:23;;;;;;;5.85;4.88;;;1.60;99.90;;;;;;5043987;28;20265;-86
2023/12/17 02:08:50;;;;;;;11.02;5.60;;;1.60;99.90;;;;;;5043897;28;20638;-85
2023/12/17 02:11:17;;;;;;;10.00;6.53;;;1.60;99.90;;;;;;5045070;28;20227;-85
2023/12/17 02:13:44;;;;;;;6.07;4.57;;;1.70;99.90;;;;;;5041872;28;20239;-86
2023/12/17 02:16:13;;;;;;;5.82;4.80;;;1.50;99.90;;;;;;5037230;28;20565;-86
2023/12/17 02:18:42;;;;;;;6.63;5.93;;;1.50;99.90;;;;;;5037199;28;20840;-84
2023/12/17 02:21:09;;;;;;;8.98;5.13;;;1.40;99.90;;;;;;5046114;28;20248;-85
2023/12/17 02:23:38;;;;;;;6.75;4.65;;;1.50;99.90;;;;;;5043634;28;20705;-85
2023/12/17 02:26:07;;;;;;;6.00;5.47;;;1.50;99.90;;;;;;5047153;28;20204;-86
2023/12/17 02:28:34;;;;;;;8.10;6.05;;;2.00;99.90;;;;;;5044924;28;20199;-86
2023/12/17 02:31:02;;;;;;;5.97;5.47;;;1.80;99.90;;;;;;5042183;28;20192;-85
2023/12/17 02:33:30;;;;;;;8.48;5.65;;;1.60;99.90;;;;;;5045995;28;20208;-86
2023/12/17 02:35:56;;;;;;;6.53;5.57;;;1.50;99.90;;;;;;5048761;28;20271;-85
2023/12/17 02:38:25;;;;;;;7.43;5.35;;;1.30;99.90;;;;;;5052765;28;20258;-86
2023/12/17 02:40:53;;;;;;;10.65;6.93;;;1.30;99.90;;;;;;5044403;28;20254;-86
2023/12/17 02:43:20;;;;;;;8.57;6.25;;;1.30;99.90;;;;;;5048989;28;20254;-85
2023/12/17 02:45:47;;;;;;;8.52;6.03;;;1.30;99.90;;;;;;5043030;28;20200;-86
2023/12/17 02:48:14;;;;;;;10.48;7.70;;;1.20;99.90;;;;;;5044462;28;20295;-86
2023/12/17 02:50:42;;;;;;;6.30;5.63;;;1.10;99.90;;;;;;5043137;28;20204;-86
2023/12/17 02:53:09;;;;;;;7.80;7.10;;;1.10;99.90;;;;;;5049967;28;20548;-85
2023/12/17 02:55:37;;;;;;;7.25;6.13;;;1.20;99.90;;;;;;5053579;28;20256;-84
2023/12/17 02:58:06;;;;;;;6.85;6.13;;;1.10;99.90;;;;;;5048317;28;20557;-86
2023/12/17 03:00:36;;;;;;;9.70;7.82;;;1.00;99.90;;;;;;5048817;28;20192;-86
2023/12/17 03:03:04;;;;;;;8.00;6.78;;;1.00;99.90;;;;;;5048483;28;20658;-85
2023/12/17 03:05:32;;;;;;;8.75;6.85;;;1.10;99.90;;;;;;5048741;28;20553;-87
2023/12/17 03:07:59;;;;;;;8.38;6.32;;;1.10;99.90;;;;;;5039708;28;20206;-86
2023/12/17 03:10:27;;;;;;;8.52;7.13;;;1.10;99.90;;;;;;5048884;28;20208;-85
2023/12/17 03:12:55;;;;;;;8.02;6.30;;;1.20;99.90;;;;;;5048857;28;20209;-86
2023/12/17 03:15:24;;;;;;;8.98;7.30;;;1.30;99.90;;;;;;5047620;28;20223;-86
2023/12/17 03:17:52;;;;;;;10.43;7.65;;;1.30;99.90;;;;;;5048287;28;20199;-86
2023/12/17 03:20:20;;;;;;;7.85;6.38;;;1.10;99.90;;;;;;5046629;28;20336;-86
2023/12/17 03:22:48;;;;;;;10.90;7.45;;;1.70;99.90;;;;;;5046379;28;20576;-86
2023/12/17 03:25:16;;;;;;;10.32;7.97;;;1.30;99.90;;;;;;5047477;28;20616;-86
2023/12/17 03:27:43;;;;;;;18.38;8.43;;;1.20;99.90;;;;;;5046396;28;20627;-86
2023/12/17 03:30:10;;;;;;;7.60;6.82;;;1.10;99.90;;;;;;5047482;28;20239;-86
2023/12/17 03:32:39;;;;;;;8.95;6.90;;;1.10;99.90;;;;;;5041192;28;20217;-86
2023/12/17 03:35:07;;;;;;;11.38;7.82;;;1.20;99.90;;;;;;5036410;28;20225;-85
2023/12/17 03:37:34;;;;;;;7.97;7.28;;;1.20;99.90;;;;;;5045379;28;20324;-87
2023/12/17 03:40:02;;;;;;;7.28;6.20;;;1.40;99.90;;;;;;5043428;28;20653;-88
2023/12/17 03:42:29;;;;;;;8.95;7.43;;;1.30;99.90;;;;;;5038301;28;20196;-88
2023/12/17 03:44:57;;;;;;;10.02;6.85;;;1.30;99.90;;;;;;5046948;28;20234;-87
2023/12/17 03:47:25;;;;;;;9.45;7.28;;;1.30;99.90;;;;;;5042692;28;20211;-87
2023/12/17 03:49:53;;;;;;;9.40;7.53;;;1.20;99.90;;;;;;5044357;28;20223;-86
2023/12/17 03:52:20;;;;;;;7.82;7.03;;;1.60;99.90;;;;;;5045039;28;20216;-87
2023/12/17 03:54:47;;;;;;;8.93;5.78;;;1.50;99.90;;;;;;5044974;28;20477;-87
2023/12/17 03:57:14;;;;;;;7.00;6.35;;;1.20;99.90;;;;;;5046468;28;20274;-86
2023/12/17 03:59:40;;;;;;;12.43;8.57;;;1.10;99.90;;;;;;5043093;28;20197;-87
2023/12/17 04:02:07;;;;;;;7.13;6.28;;;1.20;99.90;;;;;;5048180;28;20558;-87
2023/12/17 04:04:34;;;;;;;9.77;5.18;;;1.20;99.90;;;;;;5043296;28;20616;-86
2023/12/17 04:07:02;;;;;;;8.35;6.30;;;1.30;99.90;;;;;;5045239;28;20204;-86
2023/12/17 04:09:29;;;;;;;11.32;7.18;;;1.40;99.90;;;;;;5036744;28;20200;-87
2023/12/17 04:11:56;;;;;;;12.93;6.72;;;1.30;99.90;;;;;;5047057;28;20192;-87
2023/12/17 04:14:23;;;;;;;8.63;6.47;;;1.40;99.90;;;;;;5039099;28;20771;-87
2023/12/17 04:16:50;;;;;;;8.27;6.05;;;1.30;99.90;;;;;;5047282;28;20302;-87
2023/12/17 04:19:19;;;;;;;7.88;6.00;;;1.80;99.90;;;;;;5046868;28;20290;-87
2023/12/17 04:21:46;;;;;;;10.07;4.95;;;1.40;99.90;;;;;;5042689;28;20196;-86
2023/12/17 04:24:15;;;;;;;7.88;5.30;;;1.30;99.90;;;;;;5046872;28;20204;-86
2023/12/17 04:26:41;;;;;;;4.95;4.45;;;1.30;99.90;;;;;;5047180;28;20276;-87
2023/12/17 04:29:08;;;;;;;9.75;7.10;;;1.30;99.90;;;;;;5046717;28;20288;-87
2023/12/17 04:31:35;;;;;;;9.35;6.00;;;1.80;99.90;;;;;;5046696;28;20561;-84
2023/12/17 04:34:02;;;;;;;11.60;6.60;;;1.30;99.90;;;;;;5046691;28;20363;-86
2023/12/17 04:36:29;;;;;;;9.23;6.90;;;1.30;99.90;;;;;;5044940;28;20583;-86
2023/12/17 04:38:56;;;;;;;7.40;6.43;;;1.40;99.90;;;;;;5048174;28;20228;-86
2023/12/17 04:41:24;;;;;;;7.95;6.13;;;1.40;99.90;;;;;;5043838;28;20196;-86
2023/12/17 04:43:51;;;;;;;12.23;7.53;;;1.30;99.90;;;;;;5046751;28;20654;-86
2023/12/17 04:46:18;;;;;;;12.00;7.45;;;1.30;99.90;;;;;;5046232;28;20195;-86
2023/12/17 04:48:45;;;;;;;5.47;4.88;;;1.20;99.90;;;;;;5045339;28;20211;-86
2023/12/17 04:51:12;;;;;;;6.25;5.55;;;1.20;99.90;;;;;;5042339;28;20287;-87
2023/12/17 04:53:39;;;;;;;8.55;6.22;;;1.30;99.90;;;;;;5046229;28;20555;-84
2023/12/17 04:56:06;;;;;;;10.90;4.60;;;1.20;99.90;;;;;;5052716;28;20231;-85
2023/12/17 04:58:34;;;;;;;7.32;5.20;;;1.30;99.90;;;;;;5053851;28;20202;-85
2023/12/17 05:01:01;;;;;;;8.85;6.68;;;1.20;99.90;;;;;;5057977;28;20298;-85
2023/12/17 05:03:28;;;;;;;5.95;4.50;;;1.30;99.90;;;;;;5059122;28;20268;-86
2023/12/17 05:05:55;;;;;;;6.35;5.72;;;1.30;99.90;;;;;;5053656;28;20224;-85
2023/12/17 05:08:22;;;;;;;9.00;7.13;;;1.30;99.90;;;;;;5052337;28;20209;-86
2023/12/17 05:10:49;;;;;;;10.63;5.45;;;1.30;99.90;;;;;;5051649;28;20287;-86
2023/12/17 05:13:16;;;;;;;10.00;7.03;;;1.30;99.90;;;;;;5052295;28;20611;-86
2023/12/17 05:15:44;;;;;;;7.70;6.43;;;1.30;99.90;;;;;;5053919;28;20265;-85
2023/12/17 05:18:11;;;;;;;8.57;6.35;;;1.40;99.90;;;;;;5050140;28;20295;-86
2023/12/17 05:20:38;;;;;;;8.32;6.38;;;1.50;99.90;;;;;;5053161;28;20614;-86
2023/12/17 05:23:05;;;;;;;13.07;7.07;;;1.40;99.90;;;;;;5055148;28;20291;-85
2023/12/17 05:25:32;;;;;;;8.13;5.78;;;1.30;99.90;;;;;;5057001;28;20203;-85
2023/12/17 05:27:59;;;;;;;8.13;7.07;;;1.30;99.90;;;;;;5056131;28;20278;-86
2023/12/17 05:30:25;;;;;;;8.43;6.97;;;1.40;99.90;;;;;;5057424;28;20297;-85
2023/12/17 05:32:54;;;;;;;6.13;5.53;;;1.30;99.90;;;;;;5052878;28;20215;-85
2023/12/17 05:35:20;;;;;;;7.82;6.13;;;1.30;99.90;;;;;;5051272;28;20219;-85
2023/12/17 05:37:47;;;;;;;7.00;6.30;;;1.30;99.90;;;;;;5054399;28;20208;-86
2023/12/17 05:40:14;;;;;;;7.10;5.60;;;1.30;99.90;;;;;;5052142;28;20273;-86
2023/12/17 05:42:41;;;;;;;10.95;6.05;;;1.30;99.90;;;;;;5055590;28;20676;-85
2023/12/17 05:45:08;;;;;;;9.77;5.88;;;1.30;99.90;;;;;;5054163;28;20282;-85
2023/12/17 05:47:35;;;;;;;6.85;5.28;;;1.40;99.90;;;;;;5054700;28;20204;-86
2023/12/17 05:50:04;;;;;;;9.05;6.45;;;1.40;99.90;;;;;;5057226;28;20297;-85
2023/12/17 05:52:31;;;;;;;15.85;5.97;;;1.40;99.90;;;;;;5060201;28;20340;-85
2023/12/17 05:54:58;;;;;;;7.15;5.00;;;1.80;99.90;;;;;;5059921;28;20617;-85
2023/12/17 05:57:25;;;;;;;6.75;5.45;;;1.50;99.90;;;;;;5061406;28;20269;-86
2023/12/17 05:59:51;;;;;;;4.80;4.40;;;1.50;99.90;;;;;;5058944;28;20200;-85
2023/12/17 06:02:18;;;;;;;7.95;4.50;;;1.50;99.90;;;;;;5061597;28;20294;-86
2023/12/17 06:04:46;;;;;;;7.88;5.85;;;1.40;99.90;;;;;;5060158;28;20307;-85
2023/12/17 06:07:14;;;;;;;5.05;4.63;;;1.40;99.90;;;;;;5056662;28;20229;-85
2023/12/17 06:09:41;;;;;;;14.32;5.97;;;1.70;99.90;;;;;;5061907;28;20192;-85
2023/12/17 06:12:08;;;;;;;11.18;6.88;;;1.40;99.90;;;;;;5060173;28;20695;-85
2023/12/17 06:14:35;;;;;;;8.18;6.40;;;1.40;99.90;;;;;;5053715;28;20195;-85
2023/12/17 06:17:02;;;;;;;6.03;4.93;;;1.20;99.90;;;;;;5054781;28;20409;-85
2023/12/17 06:19:29;;;;;;;5.38;4.85;;;1.30;99.90;;;;;;5054132;28;20288;-85
2023/12/17 06:21:56;;;;;;;5.75;5.22;;;1.40;99.90;;;;;;5051166;28;20283;-85
2023/12/17 06:24:24;;;;;;;7.38;6.70;;;1.30;99.90;;;;;;5053030;28;20195;-85
2023/12/17 06:26:53;;;;;;;5.10;4.57;;;1.20;99.90;;;;;;5054410;28;20196;-86
2023/12/17 06:29:20;;;;;;;8.45;6.88;;;1.10;99.90;;;;;;5044931;28;20250;-85
2023/12/17 06:31:46;;;;;;;9.40;5.28;;;1.20;99.90;;;;;;5045211;28;20298;-87
2023/12/17 06:34:14;;;;;;;5.93;5.43;;;1.10;99.90;;;;;;5043441;28;20242;-84
2023/12/17 06:36:41;;;;;;;8.68;4.60;;;1.10;99.90;;;;;;5044449;28;21202;-85
2023/12/17 06:39:09;;;;;;;8.63;5.93;;;1.10;99.90;;;;;;5044042;28;20230;-80
2023/12/17 06:41:44;;;;;;;5.85;4.50;;;1.10;99.90;;;;;;5042900;28;20682;-86
2023/12/17 06:44:11;;;;;;;7.22;6.50;;;1.10;99.90;;;;;;5046116;28;20445;-85
2023/12/17 06:46:38;;;;;;;9.57;4.93;;;1.20;99.90;;;;;;5046364;28;20233;-87
2023/12/17 06:49:05;;;;;;;14.25;5.65;;;1.30;99.90;;;;;;5047692;28;20223;-85
2023/12/17 06:51:31;;;;;;;6.22;5.50;;;1.20;99.90;;;;;;5048699;28;20196;-87
2023/12/17 06:53:58;;;;;;;7.32;5.55;;;1.20;99.90;;;;;;5048872;28;20205;-86
2023/12/17 06:56:25;;;;;;;4.50;4.10;;;1.20;99.90;;;;;;5048717;28;20764;-87
2023/12/17 06:58:56;;;;;;;7.28;5.15;;;1.20;99.90;;;;;;5049323;28;20224;-87
2023/12/17 07:01:23;;;;;;;5.00;3.67;;;1.20;99.90;;;;;;5048561;28;20554;-80
2023/12/17 07:03:50;;;;;;;7.55;5.55;;;1.30;99.90;;;;;;5047522;28;20204;-74
2023/12/17 07:06:17;;;;;;;9.65;5.72;;;1.30;99.90;;;;;;5048528;28;20197;-77
2023/12/17 07:08:43;;;;;;;5.55;4.60;;;1.30;99.90;;;;;;5041173;28;20616;-79
2023/12/17 07:11:12;;;;;;;7.25;5.72;;;1.20;99.90;;;;;;5045991;28;20292;-80
2023/12/17 07:13:39;;;;;;;6.25;5.32;;;1.10;99.90;;;;;;5044825;28;20412;-82
2023/12/17 07:16:10;;;;;;;7.43;6.00;;;1.10;99.90;;;;;;5047248;28;20265;-80
2023/12/17 07:18:36;;;;;;;5.45;4.13;;;1.00;99.90;;;;;;5048385;28;20531;-79
2023/12/17 07:21:04;;;;;;;6.82;4.80;;;1.10;99.90;;;;;;5047462;28;20200;-77
2023/12/17 07:23:30;;;;;;;10.85;5.53;;;1.00;99.90;;;;;;5034697;28;20749;-77
2023/12/17 07:25:57;;;;;;;4.72;3.60;;;1.10;99.90;;;;;;5048057;28;20208;-76
2023/12/17 07:28:24;;;;;;;11.57;5.50;;;1.10;99.90;;;;;;5047997;28;20210;-76
2023/12/17 07:30:51;;;;;;;7.00;5.32;;;1.10;99.90;;;;;;5042081;28;20210;-76
2023/12/17 07:33:19;;;;;;;6.95;4.45;;;1.10;99.90;;;;;;5045968;28;20309;-80
2023/12/17 07:35:45;;;;;;;8.07;5.70;;;1.30;99.90;;;;;;5045941;28;20245;-72
2023/12/17 07:38:12;;;;;;;8.55;5.40;;;1.30;99.90;;;;;;5046526;28;20200;-74
2023/12/17 07:40:39;;;;;;;9.40;5.53;;;1.40;99.90;;;;;;5043776;28;20203;-75
2023/12/17 07:43:06;;;;;;;8.15;6.05;;;1.20;99.90;;;;;;5042930;28;20740;-76
2023/12/17 07:45:34;;;;;;;6.68;5.53;;;1.20;99.90;;;;;;5042278;28;20671;-76
2023/12/17 07:48:01;;;;;;;12.77;6.30;;;1.30;99.90;;;;;;5045865;28;20214;-76
2023/12/17 07:50:29;;;;;;;6.38;5.03;;;1.30;99.90;;;;;;5038341;28;20198;-76
2023/12/17 07:52:56;;;;;;;10.23;7.90;;;1.40;99.90;;;;;;5046830;28;20208;-76
2023/12/17 07:55:23;;;;;;;5.38;4.85;;;1.50;99.90;;;;;;5043035;28;20582;-76
2023/12/17 07:57:50;;;;;;;6.70;5.10;;;1.60;99.90;;;;;;5046405;28;20338;-76
2023/12/17 08:00:17;;;;;;;4.75;4.32;;;1.60;99.90;;;;;;5044795;28;20207;-74
2023/12/17 08:02:45;;;;;;;6.45;5.28;;;1.60;99.90;;;;;;5039915;28;20245;-75
2023/12/17 08:05:12;;;;;;;8.45;6.38;;;1.60;99.90;;;;;;5042038;28;20230;-73
2023/12/17 08:07:40;;;;;;;6.63;6.13;;;1.70;99.90;;;;;;5050403;28;20209;-73
2023/12/17 08:10:10;;;;;;;6.07;5.43;;;1.70;99.90;;;;;;5051335;28;20690;-73
2023/12/17 08:12:36;;;;;;;7.00;6.25;;;1.80;99.90;;;;;;5052102;28;20201;-73
2023/12/17 08:15:04;;;;;;;6.63;6.00;;;1.90;99.90;;;;;;5049065;28;20661;-74
2023/12/17 08:17:31;;;;;;;9.70;7.90;;;1.90;99.90;;;;;;5050323;28;20340;-73
2023/12/17 08:19:58;;;;;;;9.57;6.80;;;1.80;99.90;;;;;;5051927;28;20206;-74
2023/12/17 08:22:24;;;;;;;8.65;6.90;;;1.90;99.90;;;;;;5051633;28;20212;-74
2023/12/17 08:24:52;;;;;;;8.55;6.65;;;2.00;99.90;;;;;;5052821;28;20211;-74
2023/12/17 08:27:19;;;;;;;8.00;7.15;;;2.00;99.90;;;;;;5052396;28;20209;-73
2023/12/17 08:29:47;;;;;;;7.75;6.40;;;2.10;99.90;;;;;;5055094;28;20212;-74
2023/12/17 08:32:14;;;;;;;8.57;5.63;;;2.10;99.90;;;;;;5054073;28;20200;-74
2023/12/17 08:34:41;;;;;;;12.20;7.82;;;2.20;99.90;;;;;;5056046;28;20686;-74
2023/12/17 08:37:08;;;;;;;12.93;10.45;;;2.20;99.90;;;;;;5054284;28;20255;-74
2023/12/17 08:39:35;;;;;;;10.13;7.28;;;2.20;99.90;;;;;;5053421;28;20210;-74
2023/12/17 08:42:03;;;;;;;7.30;6.30;;;2.30;99.90;;;;;;5054518;28;20768;-74
2023/12/17 08:44:30;;;;;;;7.45;5.60;;;2.30;99.90;;;;;;5052808;28;20196;-74
2023/12/17 08:46:57;;;;;;;5.78;4.97;;;2.30;99.90;;;;;;5053939;28;20292;-74
2023/12/17 08:49:23;;;;;;;5.85;5.07;;;2.40;99.90;;;;;;5046725;28;20197;-73
2023/12/17 08:51:50;;;;;;;5.25;4.75;;;2.50;99.90;;;;;;5051408;28;20718;-73
2023/12/17 08:54:17;;;;;;;5.57;4.95;;;2.50;99.90;;;;;;5046676;28;20205;-73
2023/12/17 08:56:44;;;;;;;5.57;4.72;;;2.50;99.90;;;;;;5042099;28;20703;-74
2023/12/17 08:59:12;;;;;;;4.55;4.15;;;2.60;99.90;;;;;;5043161;28;20283;-73
2023/12/17 09:01:40;;;;;;;4.50;4.10;;;2.60;99.90;;;;;;5042286;28;20207;-72
2023/12/17 09:04:08;;;;;;;8.48;5.95;;;2.70;99.90;;;;;;5043117;28;20221;-74
2023/12/17 09:06:42;;;;;;;4.95;4.50;;;2.80;99.90;;;;;;5041405;28;20200;-73
2023/12/17 09:09:09;;;;;;;10.25;5.00;;;2.80;99.90;;;;;;5037125;28;20313;-72
2023/12/17 09:11:35;;;;;;;7.35;6.15;;;2.90;99.90;;;;;;5040493;28;20210;-73
2023/12/17 09:14:02;;;;;;;6.70;5.15;;;3.00;99.90;;;;;;5039878;28;20205;-73
2023/12/17 09:16:30;;;;;;;5.43;4.63;;;3.10;99.90;;;;;;5044615;28;20493;-73
2023/12/17 09:18:57;;;;;;;5.63;5.15;;;3.20;99.90;;;;;;5046296;28;20288;-73
2023/12/17 09:21:25;;;;;;;7.45;6.20;;;3.10;99.90;;;;;;5038351;28;20210;-73
2023/12/17 09:23:52;;;;;;;5.90;5.32;;;3.30;99.90;;;;;;5046013;28;20647;-73
2023/12/17 09:26:19;;;;;;;5.63;5.10;;;3.30;99.90;;;;;;5045519;28;20199;-73
2023/12/17 09:28:47;;;;;;;5.93;5.32;;;3.40;99.90;;;;;;5037398;28;20210;-73
2023/12/17 09:31:14;;;;;;;5.35;3.50;;;3.40;99.90;;;;;;5045424;28;20210;-73
2023/12/17 09:33:42;;;;;;;6.47;5.00;;;3.50;99.90;;;;;;5046681;28;20624;-73
2023/12/17 09:36:10;;;;;;;5.57;4.63;;;3.60;99.90;;;;;;5045722;28;20222;-72
2023/12/17 09:38:36;;;;;;;8.32;4.95;;;3.60;99.90;;;;;;5038894;28;20210;-72
2023/12/17 09:41:05;;;;;;;8.27;4.97;;;3.70;99.90;;;;;;5044406;28;20713;-73
2023/12/17 09:43:32;;;;;;;6.88;5.13;;;3.60;99.90;;;;;;5044821;28;20665;-73
2023/12/17 09:45:59;;;;;;;6.47;4.50;;;3.70;99.90;;;;;;5045558;28;20229;-72
2023/12/17 09:48:27;;;;;;;7.22;5.70;;;3.70;99.90;;;;;;5044271;28;20208;-74
2023/12/17 09:50:56;;;;;;;4.60;3.92;;;3.70;99.90;;;;;;5045577;28;20230;-72
2023/12/17 09:53:23;;;;;;;6.93;5.50;;;3.70;99.90;;;;;;5045828;28;20206;-73
2023/12/17 09:55:49;;;;;;;7.50;6.80;;;3.80;99.90;;;;;;5045077;28;20215;-73
2023/12/17 09:58:16;;;;;;;8.75;5.97;;;3.80;99.90;;;;;;5045856;28;20227;-73
2023/12/17 10:00:43;;;;;;;5.95;5.15;;;3.80;99.90;;;;;;5045305;28;20322;-73
2023/12/17 10:03:12;;;;;;;5.55;4.43;;;3.80;99.90;;;;;;5045746;28;20203;-73
2023/12/17 10:05:40;;;;;;;5.00;4.60;;;3.80;99.90;;;;;;5038361;28;20196;-73
2023/12/17 10:08:08;;;;;;;4.55;4.22;;;3.90;99.90;;;;;;5040300;28;20196;-73
2023/12/17 10:10:35;;;;;;;6.25;5.07;;;3.90;99.90;;;;;;5036181;28;20200;-73
2023/12/17 10:13:03;;;;;;;7.72;5.45;;;3.90;99.90;;;;;;5036920;28;20215;-73
2023/12/17 10:15:36;;;;;;;6.95;5.13;;;4.00;99.90;;;;;;5038245;28;20213;-73
2023/12/17 10:18:03;;;;;;;7.70;6.05;;;4.00;99.90;;;;;;5035931;28;20236;-73
2023/12/17 10:20:30;;;;;;;7.78;7.00;;;4.10;99.90;;;;;;5032300;28;20204;-73
2023/12/17 10:22:59;;;;;;;6.85;5.78;;;4.10;99.90;;;;;;5038133;28;20609;-73
2023/12/17 10:25:27;;;;;;;7.03;6.32;;;4.20;99.90;;;;;;5037766;28;20261;-73
2023/12/17 10:27:57;;;;;;;7.40;6.63;;;4.10;99.90;;;;;;5035528;28;20203;-73
2023/12/17 10:30:27;;;;;;;9.35;5.95;;;4.20;99.90;;;;;;5037525;28;20212;-73
2023/12/17 10:32:55;;;;;;;6.30;5.40;;;4.20;99.90;;;;;;5040261;28;20203;-73
2023/12/17 10:35:23;;;;;;;6.57;4.93;;;4.20;99.90;;;;;;5038865;28;20227;-73
2023/12/17 10:37:53;;;;;;;5.57;5.07;;;4.30;99.90;;;;;;5045799;28;20644;-73
2023/12/17 10:40:21;;;;;;;7.10;5.00;;;4.30;99.90;;;;;;5047155;28;20200;-73
2023/12/17 10:42:50;;;;;;;7.30;5.60;;;4.40;99.90;;;;;;5049308;28;20212;-73
2023/12/17 10:45:20;;;;;;;6.38;5.47;;;4.50;99.90;;;;;;5048454;28;20668;-73
2023/12/17 10:47:51;;;;;;;5.15;4.65;;;4.50;99.90;;;;;;5043893;28;20218;-73
2023/12/17 10:50:18;;;;;;;5.13;4.00;;;4.50;99.90;;;;;;5041896;28;20211;-72
2023/12/17 10:52:47;;;;;;;6.55;5.43;;;4.60;99.90;;;;;;5042601;28;20208;-74
2023/12/17 10:55:14;;;;;;;6.40;5.05;;;4.70;99.90;;;;;;5044210;28;20299;-74
2023/12/17 10:57:44;;;;;;;7.78;5.55;;;4.60;99.90;;;;;;5039480;28;20267;-74
2023/12/17 11:00:15;;;;;;;7.90;5.00;;;4.70;99.90;;;;;;5040270;28;20207;-73
2023/12/17 11:02:44;;;;;;;4.97;4.35;;;4.70;99.90;;;;;;5040952;28;20209;-73
2023/12/17 11:05:13;;;;;;;5.65;5.07;;;4.80;99.90;;;;;;5044241;28;20196;-74
2023/12/17 11:07:40;;;;;;;5.55;5.03;;;4.90;99.90;;;;;;5046909;28;20644;-74
2023/12/17 11:10:10;;;;;;;9.77;5.28;;;5.00;99.90;;;;;;5042920;28;20924;-73
2023/12/17 11:12:37;;;;;;;6.85;5.03;;;4.90;99.90;;;;;;5044399;28;20196;-74
2023/12/17 11:15:05;;;;;;;6.25;4.72;;;5.00;99.90;;;;;;5037040;28;20729;-74
2023/12/17 11:17:34;;;;;;;5.47;4.95;;;5.10;99.90;;;;;;5048377;28;20239;-74
2023/12/17 11:20:01;;;;;;;6.80;5.63;;;5.10;99.90;;;;;;5040429;28;20196;-74
2023/12/17 11:22:29;;;;;;;6.75;5.90;;;5.00;99.90;;;;;;5042089;28;20211;-74
2023/12/17 11:24:58;;;;;;;9.25;8.35;;;5.10;99.90;;;;;;5042950;28;20569;-74
2023/12/17 11:27:26;;;;;;;6.05;5.45;;;5.10;99.90;;;;;;5032144;28;20295;-74
2023/12/17 11:29:55;;;;;;;7.00;6.40;;;5.20;99.90;;;;;;5041447;28;20323;-75
2023/12/17 11:32:26;;;;;;;7.28;5.90;;;5.20;99.90;;;;;;5040190;28;20471;-73
2023/12/17 11:34:56;;;;;;;8.77;5.80;;;5.30;99.90;;;;;;5042696;28;20272;-73
2023/12/17 11:37:29;;;;;;;5.60;5.05;;;5.30;99.90;;;;;;5042860;28;20227;-74
2023/12/17 11:39:55;;;;;;;6.68;5.10;;;5.30;99.90;;;;;;5047032;28;20196;-74
2023/12/17 11:42:22;;;;;;;6.70;5.88;;;5.30;99.90;;;;;;5049266;28;20205;-73
2023/12/17 11:44:51;;;;;;;6.68;6.03;;;5.30;99.90;;;;;;5051463;28;20195;-74
2023/12/17 11:47:24;;;;;;;6.18;5.63;;;5.30;99.90;;;;;;5049749;28;20219;-74
2023/12/17 11:49:51;;;;;;;7.15;5.25;;;5.40;99.90;;;;;;5046802;28;20195;-74
2023/12/17 11:52:19;;;;;;;6.55;5.07;;;5.40;99.90;;;;;;5046840;28;20204;-74
2023/12/17 11:54:47;;;;;;;4.95;4.07;;;5.50;99.90;;;;;;5047093;28;20192;-74
2023/12/17 11:57:21;;;;;;;7.68;5.15;;;5.50;99.90;;;;;;5045385;28;20584;-74
2023/12/17 11:59:48;;;;;;;5.20;4.70;;;5.50;99.90;;;;;;5049556;28;20195;-74
2023/12/17 12:02:16;;;;;;;4.80;4.40;;;5.50;99.90;;;;;;5048776;28;20200;-74
2023/12/17 12:04:43;;;;;;;10.38;5.90;;;5.60;99.90;;;;;;5051548;28;20295;-74
2023/12/17 12:07:11;;;;;;;6.85;5.25;;;5.60;99.90;;;;;;5043112;28;20196;-74
2023/12/17 12:09:39;;;;;;;5.00;4.60;;;5.60;99.90;;;;;;5049325;28;20192;-74
2023/12/17 12:12:16;;;;;;;6.10;4.55;;;5.70;99.90;;;;;;5049252;28;20206;-74
2023/12/17 12:14:44;;;;;;;6.85;4.88;;;5.70;99.90;;;;;;5048564;28;20205;-75
2023/12/17 12:17:44;;;;;;;5.53;4.13;;;5.80;99.90;;;;;;5040963;28;20231;-75
2023/12/17 12:20:12;;;;;;;4.50;4.05;;;5.80;99.90;;;;;;5044102;28;20196;-75
2023/12/17 12:22:41;;;;;;;5.60;5.07;;;5.90;99.90;;;;;;5048491;28;20192;-73
2023/12/17 12:25:10;;;;;;;5.90;4.70;;;5.90;99.90;;;;;;5040767;28;20527;-73
2023/12/17 12:27:37;;;;;;;4.47;3.63;;;5.90;99.90;;;;;;5038254;28;20258;-73
2023/12/17 12:30:06;;;;;;;6.18;3.53;;;6.00;99.90;;;;;;5037423;28;20471;-73
2023/12/17 12:32:34;;;;;;;3.50;3.17;;;6.00;99.90;;;;;;5042399;28;20560;-73
2023/12/17 12:35:03;;;;;;;3.20;2.90;;;6.10;99.90;;;;;;5044937;28;20200;-73
2023/12/17 12:37:34;;;;;;;4.27;3.87;;;6.10;99.90;;;;;;5041300;28;21040;-74
2023/12/17 12:40:01;;;;;;;7.13;4.00;;;6.10;99.90;;;;;;5037162;28;20721;-74
2023/12/17 12:42:30;;;;;;;4.55;4.15;;;6.20;99.90;;;;;;5040046;28;20627;-74
2023/12/17 12:44:57;;;;;;;7.27;3.67;;;6.20;99.90;;;;;;5044707;28;20281;-75
2023/12/17 12:47:24;;;;;;;5.70;4.10;;;6.20;99.90;;;;;;5036302;28;20643;-75
2023/12/17 12:49:51;;;;;;;7.35;3.30;;;6.20;99.90;;;;;;5038859;28;20626;-73
2023/12/17 12:52:18;;;;;;;4.15;3.75;;;6.30;99.90;;;;;;5039632;28;20195;-73
2023/12/17 12:54:47;;;;;;;4.88;3.95;;;6.30;99.90;;;;;;5045890;28;20212;-73
2023/12/17 12:57:13;;;;;;;5.17;4.67;;;6.30;99.90;;;;;;5041276;28;20304;-73